Time;durP1;ratioP1;P1;durP2;ratioP2;P2;SDS_P1;SDS_P2;PMS_P1;PMS_P2;Temp;Humidity;BMP_temperature;BMP_pressure;BME280_temperature;BME280_humidity;BME280_pressure;Samples;Min_cycle;Max_cycle;Signal;HPM_P1;HPM_P2
2022/08/08 04:14:29;;;;;;;6.30;3.10;;;;;;;19.26;68.66;100627.44;5535086;26;619330;-88
2022/08/08 04:25:00;;;;;;;3.55;2.75;;;;;;;19.38;68.48;100632.78;5538970;27;30720;-88
2022/08/08 04:28:05;;;;;;;2.75;2.55;;;;;;;19.44;68.83;100642.19;5558670;26;33576;-88
2022/08/08 04:31:50;;;;;;;3.50;3.20;;;;;;;19.64;68.25;100653.97;5225277;26;20141;-90
2022/08/08 04:35:04;;;;;;;5.45;3.00;;;;;;;19.91;66.91;100658.84;5517009;27;32276;-89
2022/08/08 04:56:18;;;;;;;3.87;2.90;;;;;;;20.38;66.60;100659.44;5502201;27;32074;-89
2022/08/08 04:59:21;;;;;;;8.63;3.00;;;;;;;20.63;65.26;100660.87;5533199;27;35099;-89
2022/08/08 05:02:31;;;;;;;4.75;3.05;;;;;;;20.68;65.39;100664.00;5518029;27;34009;-90
2022/08/08 05:05:35;;;;;;;5.15;3.10;;;;;;;20.86;64.55;100658.84;5532157;27;34791;-90
2022/08/08 05:20:03;;;;;;;3.78;2.47;;;;;;;21.43;58.16;100664.63;838558;30;20562;-91
2022/08/08 05:23:18;;;;;;;3.35;2.58;;;;;;;21.63;56.62;100668.22;5467001;32;31468;-91
2022/08/08 05:26:22;;;;;;;2.45;2.25;;;;;;;21.61;59.38;100662.94;5472665;32;33640;-91
2022/08/08 05:29:30;;;;;;;5.65;2.40;;;;;;;22.03;57.18;100663.66;5473256;32;33946;-91
2022/08/08 05:32:38;;;;;;;3.28;2.35;;;;;;;22.27;56.65;100665.03;5473316;32;34584;-90
2022/08/08 05:35:46;;;;;;;2.78;2.22;;;;;;;22.55;56.07;100668.69;5480425;32;34149;-90
2022/08/08 05:38:57;;;;;;;3.42;2.40;;;;;;;22.65;53.60;100671.34;5464249;32;33993;-91
2022/08/08 05:42:01;;;;;;;2.75;2.53;;;;;;;22.66;54.71;100666.78;5460714;32;32805;-89
2022/08/08 05:45:04;;;;;;;5.22;2.25;;;;;;;22.43;54.96;100672.53;5474232;32;34770;-89
2022/08/08 05:48:33;;;;;;;3.15;1.95;;;;;;;22.30;55.20;100680.94;5474090;32;34460;-89
2022/08/08 05:51:41;;;;;;;2.85;2.00;;;;;;;22.32;54.17;100668.13;5459265;32;34477;-88
2022/08/08 06:29:08;;;;;;;2.62;1.80;;;;;;;24.53;44.24;100668.06;5507429;26;33667;-87
2022/08/08 07:03:35;;;;;;;2.17;1.70;;;;;;;23.21;45.54;100673.19;2223871;27;20104;-86
2022/08/08 07:07:03;;;;;;;7.40;1.80;;;;;;;23.19;43.72;100681.47;5452674;32;34205;-91
2022/08/08 07:10:19;;;;;;;3.55;1.90;;;;;;;23.28;44.89;100680.53;5434395;32;33909;-88
2022/08/08 07:13:31;;;;;;;2.03;1.55;;;;;;;23.46;44.28;100681.59;5439459;32;33143;-87
2022/08/08 07:17:07;;;;;;;5.25;1.70;;;;;;;23.55;44.86;100686.94;5453356;32;33776;-87
2022/08/08 07:24:20;;;;;;;5.22;1.80;;;;;;;23.64;44.42;100679.75;3842419;27;20086;-86
2022/08/08 07:27:26;;;;;;;4.28;2.00;;;;;;;23.83;43.72;100688.69;5444462;32;34442;-87
2022/08/08 07:30:50;;;;;;;3.62;1.90;;;;;;;23.70;43.44;100689.13;5463706;27;35190;-88
2022/08/08 07:33:55;;;;;;;3.72;1.85;;;;;;;23.95;42.95;100689.31;5480802;27;31928;-89
2022/08/08 07:40:47;;;;;;;3.35;1.80;;;;;;;24.32;43.62;100695.53;4015232;30;20097;-89
2022/08/08 07:51:17;;;;;;;2.25;1.60;;;;;;;25.49;41.01;100696.94;3960325;30;20109;-88
2022/08/08 07:58:44;;;;;;;2.75;1.83;;;;;;;25.59;39.39;100703.06;5466361;27;20099;-89
2022/08/08 08:02:03;;;;;;;4.97;1.75;;;;;;;26.23;39.52;100704.28;5455463;27;33830;-88
2022/08/08 08:05:28;;;;;;;5.90;1.58;;;;;;;26.09;39.35;100703.09;5433428;32;33933;-88
2022/08/08 08:08:42;;;;;;;4.00;1.90;;;;;;;26.53;37.94;100707.31;5433309;32;34491;-89
2022/08/08 08:11:55;;;;;;;3.42;1.77;;;;;;;26.78;37.41;100709.94;5432798;32;33992;-88
2022/08/08 08:15:10;;;;;;;4.40;1.73;;;;;;;26.76;37.62;100714.72;5433760;32;35130;-88
2022/08/08 08:18:22;;;;;;;9.18;2.10;;;;;;;26.32;37.60;100724.16;5415638;32;34992;-89
2022/08/08 08:21:42;;;;;;;2.45;1.98;;;;;;;26.05;37.61;100712.63;5400833;32;34081;-88
2022/08/08 08:25:03;;;;;;;3.87;1.90;;;;;;;26.33;37.47;100715.84;5411340;32;33784;-89
2022/08/08 08:28:10;;;;;;;2.70;1.73;;;;;;;26.39;38.12;100708.84;5425580;32;34548;-87
2022/08/08 08:31:26;;;;;;;3.05;1.70;;;;;;;26.98;36.48;100704.97;5431049;32;34572;-88
2022/08/08 08:34:30;;;;;;;2.95;1.58;;;;;;;27.07;37.18;100710.38;5433081;32;33458;-88
2022/08/08 08:37:36;;;;;;;2.58;1.67;;;;;;;26.93;36.79;100714.69;5419338;32;32960;-88
2022/08/08 08:41:01;;;;;;;2.28;1.85;;;;;;;27.66;35.49;100709.06;5420094;32;33679;-88
2022/08/08 08:44:09;;;;;;;6.12;2.10;;;;;;;28.78;34.45;100715.69;5419737;32;32674;-88
2022/08/08 08:47:17;;;;;;;4.35;2.00;;;;;;;29.63;32.28;100717.16;5431681;32;34100;-88
2022/08/08 08:50:25;;;;;;;3.67;2.08;;;;;;;30.28;31.54;100723.62;5429339;27;33587;-88
2022/08/08 08:53:48;;;;;;;6.90;2.08;;;;;;;30.43;30.76;100718.06;5417967;32;32663;-89
2022/08/08 08:57:07;;;;;;;4.97;1.95;;;;;;;30.53;31.66;100724.03;5405591;32;32868;-88
2022/08/08 09:00:28;;;;;;;8.32;2.22;;;;;;;31.36;30.67;100722.34;5442453;27;32957;-88
2022/08/08 09:07:18;;;;;;;3.55;2.08;;;;;;;31.10;30.41;100709.38;5401411;32;33057;-88
2022/08/08 09:17:55;;;;;;;7.70;2.12;;;;;;;29.14;34.29;100726.88;4200749;27;20185;-88
2022/08/08 09:21:01;;;;;;;5.97;2.03;;;;;;;28.31;35.31;100722.34;5479511;27;34511;-89
2022/08/08 09:24:44;;;;;;;4.53;2.20;;;;;;;28.02;36.52;100718.47;5094072;30;20115;-89
2022/08/08 09:27:50;;;;;;;4.50;2.10;;;;;;;27.91;35.86;100720.59;5416633;32;33628;-89
2022/08/08 09:31:06;;;;;;;2.33;1.95;;;;;;;27.57;36.79;100724.56;5418398;32;33922;-89
2022/08/08 09:34:19;;;;;;;4.07;2.15;;;;;;;27.64;36.82;100714.69;5446539;27;33575;-88
2022/08/08 09:37:44;;;;;;;;;;;;;;;27.55;37.88;100724.75;5483997;27;33657;-90
2022/08/08 09:45:01;;;;;;;4.47;2.30;;;;;;;26.73;39.02;100726.81;4902246;30;20173;-89
2022/08/08 09:48:10;;;;;;;5.68;3.12;;;;;;;26.94;37.89;100724.56;5482507;27;33885;-89
2022/08/08 09:51:29;;;;;;;4.10;2.30;;;;;;;26.89;38.64;100725.91;5436779;32;34315;-91
2022/08/08 09:54:53;;;;;;;3.70;2.30;;;;;;;26.77;38.39;100722.72;5435999;32;33996;-89
2022/08/08 09:58:16;;;;;;;5.82;2.20;;;;;;;27.09;37.54;100720.06;5427478;32;33870;-89
2022/08/08 10:01:29;;;;;;;9.85;2.37;;;;;;;27.02;38.63;100714.50;5441141;32;34180;-89
2022/08/08 10:04:52;;;;;;;7.03;2.42;;;;;;;27.29;38.09;100712.31;5440644;32;35020;-90
2022/08/08 10:07:59;;;;;;;3.25;2.08;;;;;;;27.27;38.09;100706.19;5434836;32;33894;-89
2022/08/08 10:11:04;;;;;;;6.20;2.33;;;;;;;27.26;38.52;100707.19;5438272;32;33604;-89
2022/08/08 10:14:31;;;;;;;2.62;2.40;;;;;;;27.21;38.56;100704.19;5439780;32;33627;-89
2022/08/08 10:17:49;;;;;;;6.80;2.40;;;;;;;26.99;38.13;100708.53;5436214;32;33922;-89
2022/08/08 10:21:21;;;;;;;5.07;2.15;;;;;;;26.91;39.56;100704.81;5420814;32;33849;-89
2022/08/08 10:24:44;;;;;;;3.28;2.40;;;;;;;26.79;40.09;100714.38;5432131;32;34048;-90
2022/08/08 10:27:51;;;;;;;11.32;3.00;;;;;;;26.97;40.04;100714.19;5406412;32;34522;-90
2022/08/08 10:45:50;;;;;;;3.17;2.37;;;;;;;26.42;40.01;100704.94;5440844;27;31658;-89
2022/08/08 10:49:00;;;;;;;4.57;2.60;;;;;;;26.83;39.44;100702.13;5421415;32;33143;-88
2022/08/08 10:52:04;;;;;;;4.12;2.70;;;;;;;27.01;39.38;100695.63;5437053;27;32685;-86
2022/08/08 10:55:13;;;;;;;4.10;2.30;;;;;;;27.17;39.98;100692.78;5422202;32;33510;-87
2022/08/08 10:58:36;;;;;;;5.45;2.72;;;;;;;27.29;40.46;100700.56;5435371;32;34797;-87
2022/08/08 11:01:48;;;;;;;3.10;2.55;;;;;;;26.87;41.23;100695.31;5422750;32;32763;-87
2022/08/08 11:04:58;;;;;;;4.43;2.78;;;;;;;26.95;41.01;100690.87;5439272;32;33876;-88
2022/08/08 11:08:07;;;;;;;4.35;2.90;;;;;;;27.06;40.04;100689.62;5505549;27;34208;-87
2022/08/08 11:11:57;;;;;;;5.97;2.60;;;;;;;27.28;40.13;100688.84;5422581;32;32811;-87
2022/08/08 11:15:30;;;;;;;5.35;2.80;;;;;;;27.37;40.20;100691.50;4838654;27;20119;-88
2022/08/08 11:18:35;;;;;;;7.30;2.83;;;;;;;27.56;39.62;100703.81;5434919;32;32208;-88
2022/08/08 11:21:40;;;;;;;7.53;3.08;;;;;;;28.18;39.03;100707.44;5420502;32;33493;-88
2022/08/08 11:24:46;;;;;;;11.77;3.03;;;;;;;27.68;41.27;100701.53;5436147;27;32714;-87
2022/08/08 11:27:51;;;;;;;4.82;3.30;;;;;;;28.16;40.65;100701.28;5435568;32;34154;-88
2022/08/08 11:30:56;;;;;;;4.95;3.35;;;;;;;28.02;40.95;100710.28;5422839;32;32498;-89
2022/08/08 11:34:03;;;;;;;13.80;3.33;;;;;;;27.26;43.13;100718.09;5433817;32;33711;-88
2022/08/08 11:37:27;;;;;;;8.02;3.70;;;;;;;27.28;44.19;100721.50;5450827;27;33801;-89
2022/08/08 11:40:52;;;;;;;8.10;4.00;;;;;;;27.01;45.90;100712.78;5438004;32;34136;-89
2022/08/08 11:43:55;;;;;;;7.03;3.90;;;;;;;26.80;48.00;100701.63;5437999;32;34117;-88
2022/08/08 11:47:00;;;;;;;5.00;4.10;;;;;;;26.24;50.61;100706.84;5432775;32;34709;-88
2022/08/08 11:50:09;;;;;;;8.55;4.68;;;;;;;25.30;53.65;100707.91;5420307;32;32531;-89
2022/08/08 11:53:13;;;;;;;4.77;4.00;;;;;;;24.79;56.05;100713.25;5416830;32;33475;-88
2022/08/08 11:56:21;;;;;;;4.85;4.45;;;;;;;25.19;55.57;100705.50;5416251;32;34113;-88
2022/08/08 11:59:31;;;;;;;7.07;4.65;;;;;;;25.53;54.98;100714.59;5410933;32;34838;-88
2022/08/08 12:02:55;;;;;;;5.85;4.40;;;;;;;24.93;58.10;100719.97;5428238;32;35216;-89
2022/08/08 12:17:09;;;;;;;8.95;4.95;;;;;;;24.34;59.05;100717.94;5263995;30;20133;-88
2022/08/08 12:20:12;;;;;;;6.15;4.93;;;;;;;24.41;59.18;100724.41;5420658;32;34695;-88
2022/08/08 12:23:27;;;;;;;8.73;5.03;;;;;;;23.63;63.23;100718.66;5424299;32;34194;-88
2022/08/08 12:37:36;;;;;;;6.68;4.95;;;;;;;22.26;70.57;100733.56;4918731;27;20162;-90
2022/08/08 12:40:47;;;;;;;6.20;4.85;;;;;;;22.56;68.91;100732.56;5423842;32;33489;-87
2022/08/08 12:44:25;;;;;;;5.43;4.93;;;;;;;22.56;68.13;100729.00;5450413;27;33908;-89
2022/08/08 12:47:35;;;;;;;5.75;5.10;;;;;;;22.64;68.40;100726.41;5465427;27;34247;-88
2022/08/08 12:51:01;;;;;;;5.53;5.10;;;;;;;22.46;69.26;100731.69;5437033;32;34125;-88
2022/08/08 12:54:22;;;;;;;6.53;5.20;;;;;;;22.21;71.74;100729.47;5424100;32;32891;-87
2022/08/08 12:57:27;;;;;;;8.73;5.57;;;;;;;22.56;70.64;100724.44;5421300;32;33598;-88
2022/08/08 13:00:34;;;;;;;7.82;5.62;;;;;;;22.64;70.46;100737.25;5437983;32;34394;-87
2022/08/08 13:03:48;;;;;;;6.10;5.60;;;;;;;22.73;71.07;100740.91;5437474;32;33335;-88
